Estación municipal de Les Masies de Roda (Osona, Ter)

Consulta los datos en tiempo real de la estación municipal de Les Masies de Roda





Hora UTC 03:40
Temperatura 8.8 ºC
Suelo 15 cm 8.7 ºC
Humedad 99.0 %
Presión 1010.2 hPa
Pluja 0.0 mm
Velocidad viento 3.2 km/h
Dirección viento S
Radiación solar 0.1 W/m²

Datos diarios 2026-05-06



Hora UTC (invierno +1h; verano +2h)
Temperatura (ºC) Humedad (%) Presión (hPa) Velocidad viento (km/h) Precipitación (mm) Radiación solar (W/m²)
Hora UTC Aire Suelo 15 cm Humedad Presión Vel. Dir. Vel. Max Dir. Intent. máx 5 min. Rad. Sol.
00:05 9.2 8.8 98.8 1010.6 0.0 NNE 0.0 N 0.0 0.1
00:10 9.3 8.8 98.8 1010.4 0.0 NNE 0.0 N 0.0 0.1
00:15 9.3 8.8 98.8 1010.6 0.0 NNE 0.0 N 0.0 0.1
00:20 9.4 8.9 98.8 1010.4 0.0 NNE 0.0 N 0.0 0.1
00:25 9.4 9.1 98.8 1010.5 0.0 WNW 1.4 WNW 0.0 0.1
00:30 9.4 9.2 98.8 1010.3 2.2 W 3.5 WNW 0.0 0.1
00:35 9.5 9.3 98.8 1010.5 2.8 W 3.9 WNW 0.0 0.1
00:40 9.5 9.4 98.8 1010.3 2.0 W 3.5 WSW 0.0 0.1
00:45 9.4 9.3 98.8 1010.4 0.0 NNE 0.0 W 0.0 0.1
00:50 9.4 9.3 98.8 1010.3 1.6 WSW 3.5 WSW 0.0 0.1
00:55 9.4 9.4 98.8 1010.4 2.5 WSW 3.5 WSW 0.0 0.1
01:00 9.4 9.4 98.8 1010.3 2.6 SSW 3.5 SW 0.0 0.1
01:05 9.4 9.4 98.9 1010.4 2.7 W 4.2 NW 0.0 0.1
01:10 9.4 9.3 98.8 1010.3 0.4 WNW 2.8 WNW 0.0 0.1
01:15 9.4 9.3 98.9 1010.4 1.6 NNE 5.3 NNW 0.0 0.1
01:20 9.3 9.3 98.8 1010.2 1.3 N 5.0 NNW 0.0 0.1
01:25 9.3 9.3 98.9 1010.3 1.1 NNE 3.9 NNE 0.0 0.1
01:30 9.4 9.3 98.9 1010.2 1.9 WNW 3.9 WNW 0.0 0.1
01:35 9.3 9.3 98.9 1010.3 0.4 W 2.1 W 0.0 0.1
01:40 9.3 9.3 98.9 1010.2 2.4 SW 3.9 SW 0.0 0.1
01:45 9.3 9.3 98.9 1010.3 1.2 WSW 3.2 W 0.0 0.1
01:50 9.3 9.3 99.0 1010.1 2.3 W 3.2 W 0.0 0.1
01:55 9.4 9.3 99.0 1010.2 1.7 WSW 2.8 WSW 0.0 0.1
02:00 9.4 9.3 99.0 1010.1 1.7 SSW 5.3 S 0.0 0.1
02:05 9.4 9.3 99.0 1010.1 4.2 SSE 7.1 SSE 0.0 0.1
02:10 9.2 9.3 98.9 1010.1 4.7 SE 7.1 SE 0.0 0.1
02:15 9.2 9.3 99.0 1010.1 3.3 S 5.7 SSE 0.0 0.1
02:20 9.3 9.3 99.0 1010.2 3.3 WSW 5.0 W 0.0 0.1
02:25 9.4 9.3 99.0 1010.2 3.5 W 6.7 WNW 0.0 0.1
02:30 9.3 9.3 99.0 1010.3 4.5 W 6.4 W 0.0 0.1
02:35 9.2 9.2 98.9 1010.3 4.3 WNW 6.4 WNW 0.0 0.1
02:40 9.1 9.1 99.0 1010.4 2.8 W 4.6 SW 0.0 0.1
02:45 9.1 9.1 99.0 1010.3 2.5 WSW 6.0 SW 0.0 0.1
02:50 9.1 9.1 99.0 1010.4 5.2 SW 8.1 SW 0.0 0.1
02:55 9.0 9.1 99.0 1010.2 4.4 SW 6.7 SSW 0.0 0.1
03:00 9.0 9.1 99.0 1010.4 3.2 SW 5.3 S 0.0 0.1
03:05 9.0 9.1 99.0 1010.2 4.8 SSE 6.7 SSE 0.0 0.1
03:10 8.9 9.0 99.0 1010.3 2.7 S 4.6 SSE 0.0 0.1
03:15 8.9 9.0 99.0 1010.2 2.5 SW 4.6 SSW 0.0 0.1
03:20 8.9 9.0 99.0 1010.2 1.6 SSW 3.2 S 0.0 0.1
03:25 8.9 8.9 99.0 1010.1 2.4 SE 3.9 ESE 0.0 0.1
03:30 8.9 8.8 99.0 1010.3 3.8 S 6.4 SSW 0.0 0.1
03:35 8.8 8.7 99.0 1010.2 3.7 SSW 6.4 SSW 0.0 0.1
03:40 8.8 8.7 99.0 1010.2 3.2 S 6.4 SSW 0.0 0.1
Máxima 9.5 9.4 99.0 1010.6 5.2 SW 8.1 SW 0.0 0.1
Mínima 8.8 8.7 98.8 1010.1
Total 0.0